sensor_id;sensor_type;location;lat;lon;timestamp;temperature;humidity
11264;DHT22;5689;48.798;9.070;2023-04-15T00:01:58;4.90;99.90
11264;DHT22;5689;48.798;9.070;2023-04-15T00:04:26;4.70;99.90
11264;DHT22;5689;48.798;9.070;2023-04-15T00:06:54;4.70;99.90
11264;DHT22;5689;48.798;9.070;2023-04-15T00:09:23;4.70;99.90
11264;DHT22;5689;48.798;9.070;2023-04-15T00:11:52;4.80;99.90
11264;DHT22;5689;48.798;9.070;2023-04-15T00:14:20;4.70;99.90
11264;DHT22;5689;48.798;9.070;2023-04-15T00:16:48;4.70;99.90
11264;DHT22;5689;48.798;9.070;2023-04-15T00:19:21;4.80;99.90
11264;DHT22;5689;48.798;9.070;2023-04-15T00:21:50;4.80;99.90
11264;DHT22;5689;48.798;9.070;2023-04-15T00:24:18;4.70;99.90
11264;DHT22;5689;48.798;9.070;2023-04-15T00:26:46;4.60;99.90
11264;DHT22;5689;48.798;9.070;2023-04-15T00:29:16;4.50;99.90
11264;DHT22;5689;48.798;9.070;2023-04-15T00:31:44;4.40;99.90
11264;DHT22;5689;48.798;9.070;2023-04-15T00:34:12;4.40;99.90
11264;DHT22;5689;48.798;9.070;2023-04-15T00:36:42;4.40;99.90
11264;DHT22;5689;48.798;9.070;2023-04-15T00:39:11;4.60;99.90
11264;DHT22;5689;48.798;9.070;2023-04-15T00:41:41;4.60;99.90
11264;DHT22;5689;48.798;9.070;2023-04-15T00:44:11;4.60;99.90
11264;DHT22;5689;48.798;9.070;2023-04-15T00:46:41;4.50;99.90
11264;DHT22;5689;48.798;9.070;2023-04-15T00:49:11;4.40;99.90
11264;DHT22;5689;48.798;9.070;2023-04-15T00:51:39;4.30;99.90
11264;DHT22;5689;48.798;9.070;2023-04-15T00:54:07;4.20;99.90
11264;DHT22;5689;48.798;9.070;2023-04-15T00:56:37;4.10;99.90
11264;DHT22;5689;48.798;9.070;2023-04-15T00:59:06;4.10;99.90
11264;DHT22;5689;48.798;9.070;2023-04-15T01:01:35;4.00;99.90
11264;DHT22;5689;48.798;9.070;2023-04-15T01:04:05;4.10;99.90
11264;DHT22;5689;48.798;9.070;2023-04-15T01:06:35;4.00;99.90
11264;DHT22;5689;48.798;9.070;2023-04-15T01:09:03;4.30;99.90
11264;DHT22;5689;48.798;9.070;2023-04-15T01:11:32;4.30;99.90
11264;DHT22;5689;48.798;9.070;2023-04-15T01:14:00;4.20;99.90
11264;DHT22;5689;48.798;9.070;2023-04-15T01:16:30;4.10;99.90
11264;DHT22;5689;48.798;9.070;2023-04-15T01:18:58;4.10;99.90
11264;DHT22;5689;48.798;9.070;2023-04-15T01:21:28;3.90;99.90
11264;DHT22;5689;48.798;9.070;2023-04-15T01:23:56;4.00;99.90
11264;DHT22;5689;48.798;9.070;2023-04-15T01:26:27;3.90;99.90
11264;DHT22;5689;48.798;9.070;2023-04-15T01:28:56;3.90;99.90
11264;DHT22;5689;48.798;9.070;2023-04-15T01:31:24;3.90;99.90
11264;DHT22;5689;48.798;9.070;2023-04-15T01:33:53;3.80;99.90
11264;DHT22;5689;48.798;9.070;2023-04-15T01:36:21;3.70;99.90
11264;DHT22;5689;48.798;9.070;2023-04-15T01:38:52;3.90;99.90
11264;DHT22;5689;48.798;9.070;2023-04-15T01:41:21;3.70;99.90
11264;DHT22;5689;48.798;9.070;2023-04-15T01:43:53;3.80;99.90
11264;DHT22;5689;48.798;9.070;2023-04-15T01:46:21;3.80;99.90
11264;DHT22;5689;48.798;9.070;2023-04-15T01:48:50;3.90;99.90
11264;DHT22;5689;48.798;9.070;2023-04-15T01:51:18;4.00;99.90
11264;DHT22;5689;48.798;9.070;2023-04-15T01:53:48;3.80;99.90
11264;DHT22;5689;48.798;9.070;2023-04-15T01:56:16;3.60;99.90
11264;DHT22;5689;48.798;9.070;2023-04-15T01:58:45;3.50;99.90
11264;DHT22;5689;48.798;9.070;2023-04-15T02:01:15;3.40;99.90
11264;DHT22;5689;48.798;9.070;2023-04-15T02:03:45;3.30;99.90
11264;DHT22;5689;48.798;9.070;2023-04-15T02:06:14;3.40;99.90
11264;DHT22;5689;48.798;9.070;2023-04-15T02:08:42;3.30;99.90
11264;DHT22;5689;48.798;9.070;2023-04-15T02:11:11;3.40;99.90
11264;DHT22;5689;48.798;9.070;2023-04-15T02:13:39;3.40;99.90
11264;DHT22;5689;48.798;9.070;2023-04-15T02:16:16;3.20;99.90
11264;DHT22;5689;48.798;9.070;2023-04-15T02:18:45;3.30;99.90
11264;DHT22;5689;48.798;9.070;2023-04-15T02:21:13;3.30;99.90
11264;DHT22;5689;48.798;9.070;2023-04-15T02:23:42;3.40;99.90
11264;DHT22;5689;48.798;9.070;2023-04-15T02:26:12;3.40;99.90
11264;DHT22;5689;48.798;9.070;2023-04-15T02:28:40;3.30;99.90
11264;DHT22;5689;48.798;9.070;2023-04-15T02:31:08;3.20;99.90
11264;DHT22;5689;48.798;9.070;2023-04-15T02:33:37;3.00;99.90
11264;DHT22;5689;48.798;9.070;2023-04-15T02:36:06;3.20;99.90
11264;DHT22;5689;48.798;9.070;2023-04-15T02:38:35;3.10;99.90
11264;DHT22;5689;48.798;9.070;2023-04-15T02:41:04;3.00;99.90
11264;DHT22;5689;48.798;9.070;2023-04-15T02:43:33;3.10;99.90
11264;DHT22;5689;48.798;9.070;2023-04-15T02:46:01;3.10;99.90
11264;DHT22;5689;48.798;9.070;2023-04-15T02:48:29;3.00;99.90
11264;DHT22;5689;48.798;9.070;2023-04-15T02:51:12;2.90;99.90
11264;DHT22;5689;48.798;9.070;2023-04-15T02:53:40;2.90;99.90
11264;DHT22;5689;48.798;9.070;2023-04-15T02:56:08;2.90;99.90
11264;DHT22;5689;48.798;9.070;2023-04-15T02:58:38;2.90;99.90
11264;DHT22;5689;48.798;9.070;2023-04-15T03:01:07;2.80;99.90
11264;DHT22;5689;48.798;9.070;2023-04-15T03:03:36;2.90;99.90
11264;DHT22;5689;48.798;9.070;2023-04-15T03:06:04;3.00;99.90
11264;DHT22;5689;48.798;9.070;2023-04-15T03:08:34;2.80;99.90
11264;DHT22;5689;48.798;9.070;2023-04-15T03:11:03;2.70;99.90
11264;DHT22;5689;48.798;9.070;2023-04-15T03:13:32;2.60;99.90
11264;DHT22;5689;48.798;9.070;2023-04-15T03:16:09;2.60;99.90
11264;DHT22;5689;48.798;9.070;2023-04-15T03:18:37;2.60;99.90
11264;DHT22;5689;48.798;9.070;2023-04-15T03:21:06;2.70;99.90
11264;DHT22;5689;48.798;9.070;2023-04-15T03:23:37;2.80;99.90
11264;DHT22;5689;48.798;9.070;2023-04-15T03:26:05;2.80;99.90
11264;DHT22;5689;48.798;9.070;2023-04-15T03:28:35;2.60;99.90
11264;DHT22;5689;48.798;9.070;2023-04-15T03:31:03;2.50;99.90
11264;DHT22;5689;48.798;9.070;2023-04-15T03:33:31;2.50;99.90
11264;DHT22;5689;48.798;9.070;2023-04-15T03:35:59;2.60;99.90
11264;DHT22;5689;48.798;9.070;2023-04-15T03:38:27;2.50;99.90
11264;DHT22;5689;48.798;9.070;2023-04-15T03:40:57;2.80;99.90
11264;DHT22;5689;48.798;9.070;2023-04-15T03:43:25;2.80;99.90
11264;DHT22;5689;48.798;9.070;2023-04-15T03:45:53;2.80;99.90
11264;DHT22;5689;48.798;9.070;2023-04-15T03:48:21;2.70;99.90
11264;DHT22;5689;48.798;9.070;2023-04-15T03:50:49;2.80;99.90
11264;DHT22;5689;48.798;9.070;2023-04-15T03:53:18;2.80;99.90
11264;DHT22;5689;48.798;9.070;2023-04-15T03:55:46;2.60;99.90
11264;DHT22;5689;48.798;9.070;2023-04-15T03:58:15;2.50;99.90
11264;DHT22;5689;48.798;9.070;2023-04-15T04:00:43;2.50;99.90
11264;DHT22;5689;48.798;9.070;2023-04-15T04:03:11;2.60;99.90
11264;DHT22;5689;48.798;9.070;2023-04-15T04:05:39;2.70;99.90
11264;DHT22;5689;48.798;9.070;2023-04-15T04:08:08;2.70;99.90
11264;DHT22;5689;48.798;9.070;2023-04-15T04:10:39;2.60;99.90
11264;DHT22;5689;48.798;9.070;2023-04-15T04:13:07;2.60;99.90
11264;DHT22;5689;48.798;9.070;2023-04-15T04:15:37;2.70;99.90
11264;DHT22;5689;48.798;9.070;2023-04-15T04:18:05;2.60;99.90
11264;DHT22;5689;48.798;9.070;2023-04-15T04:20:34;2.60;99.90
11264;DHT22;5689;48.798;9.070;2023-04-15T04:23:02;2.60;99.90
11264;DHT22;5689;48.798;9.070;2023-04-15T04:25:30;2.40;99.90
11264;DHT22;5689;48.798;9.070;2023-04-15T04:27:58;2.40;99.90
11264;DHT22;5689;48.798;9.070;2023-04-15T04:30:26;2.40;99.90
11264;DHT22;5689;48.798;9.070;2023-04-15T04:32:56;2.50;99.90
11264;DHT22;5689;48.798;9.070;2023-04-15T04:35:24;2.40;99.90
11264;DHT22;5689;48.798;9.070;2023-04-15T04:37:53;2.30;99.90
11264;DHT22;5689;48.798;9.070;2023-04-15T04:40:21;2.30;99.90
11264;DHT22;5689;48.798;9.070;2023-04-15T04:42:49;2.30;99.90
11264;DHT22;5689;48.798;9.070;2023-04-15T04:45:17;2.30;99.90
11264;DHT22;5689;48.798;9.070;2023-04-15T04:47:46;2.20;99.90
11264;DHT22;5689;48.798;9.070;2023-04-15T04:50:15;2.20;99.90
11264;DHT22;5689;48.798;9.070;2023-04-15T04:52:43;2.20;99.90
11264;DHT22;5689;48.798;9.070;2023-04-15T04:55:12;2.20;99.90
11264;DHT22;5689;48.798;9.070;2023-04-15T04:57:39;2.30;99.90
11264;DHT22;5689;48.798;9.070;2023-04-15T05:00:09;2.40;99.90
11264;DHT22;5689;48.798;9.070;2023-04-15T05:02:38;2.40;99.90
11264;DHT22;5689;48.798;9.070;2023-04-15T05:05:08;2.40;99.90
11264;DHT22;5689;48.798;9.070;2023-04-15T05:07:37;2.30;99.90
11264;DHT22;5689;48.798;9.070;2023-04-15T05:10:07;2.60;99.90
11264;DHT22;5689;48.798;9.070;2023-04-15T05:12:35;2.70;99.90
11264;DHT22;5689;48.798;9.070;2023-04-15T05:15:05;2.60;99.90
11264;DHT22;5689;48.798;9.070;2023-04-15T05:17:33;2.80;99.90
11264;DHT22;5689;48.798;9.070;2023-04-15T05:20:02;2.70;99.90
11264;DHT22;5689;48.798;9.070;2023-04-15T05:22:30;2.60;99.90
11264;DHT22;5689;48.798;9.070;2023-04-15T05:25:00;2.80;99.90
11264;DHT22;5689;48.798;9.070;2023-04-15T05:27:28;2.80;99.90
11264;DHT22;5689;48.798;9.070;2023-04-15T05:29:56;2.70;99.90
11264;DHT22;5689;48.798;9.070;2023-04-15T05:32:24;2.80;99.90
11264;DHT22;5689;48.798;9.070;2023-04-15T05:34:53;3.00;99.90
11264;DHT22;5689;48.798;9.070;2023-04-15T05:37:21;3.30;99.90
11264;DHT22;5689;48.798;9.070;2023-04-15T05:39:49;3.30;99.90
11264;DHT22;5689;48.798;9.070;2023-04-15T05:42:19;3.40;99.90
11264;DHT22;5689;48.798;9.070;2023-04-15T05:44:47;3.60;99.90
11264;DHT22;5689;48.798;9.070;2023-04-15T05:47:16;4.20;99.90
11264;DHT22;5689;48.798;9.070;2023-04-15T05:49:44;5.20;99.90
11264;DHT22;5689;48.798;9.070;2023-04-15T05:52:12;6.20;99.90
11264;DHT22;5689;48.798;9.070;2023-04-15T05:54:40;6.80;99.90
11264;DHT22;5689;48.798;9.070;2023-04-15T05:57:08;7.20;99.90
11264;DHT22;5689;48.798;9.070;2023-04-15T05:59:38;7.10;99.90
11264;DHT22;5689;48.798;9.070;2023-04-15T06:02:09;7.00;99.90
11264;DHT22;5689;48.798;9.070;2023-04-15T06:04:37;7.10;99.90
11264;DHT22;5689;48.798;9.070;2023-04-15T06:07:06;7.30;99.90
11264;DHT22;5689;48.798;9.070;2023-04-15T06:09:34;7.70;99.90
11264;DHT22;5689;48.798;9.070;2023-04-15T06:12:02;7.60;99.90
11264;DHT22;5689;48.798;9.070;2023-04-15T06:14:30;7.90;99.90
11264;DHT22;5689;48.798;9.070;2023-04-15T06:17:00;7.50;99.90
11264;DHT22;5689;48.798;9.070;2023-04-15T06:19:28;7.50;99.90
11264;DHT22;5689;48.798;9.070;2023-04-15T06:21:57;7.60;99.90
11264;DHT22;5689;48.798;9.070;2023-04-15T06:24:26;7.40;99.90
11264;DHT22;5689;48.798;9.070;2023-04-15T06:26:54;7.40;99.90
11264;DHT22;5689;48.798;9.070;2023-04-15T06:29:24;7.80;99.90
11264;DHT22;5689;48.798;9.070;2023-04-15T06:31:52;8.20;99.90
11264;DHT22;5689;48.798;9.070;2023-04-15T06:34:23;8.60;99.90
11264;DHT22;5689;48.798;9.070;2023-04-15T06:36:51;9.00;99.90
11264;DHT22;5689;48.798;9.070;2023-04-15T06:39:20;9.60;99.90
11264;DHT22;5689;48.798;9.070;2023-04-15T06:41:50;9.90;99.90
11264;DHT22;5689;48.798;9.070;2023-04-15T06:44:21;10.40;99.90
11264;DHT22;5689;48.798;9.070;2023-04-15T06:46:49;10.30;99.90
11264;DHT22;5689;48.798;9.070;2023-04-15T06:49:17;10.50;99.90
11264;DHT22;5689;48.798;9.070;2023-04-15T06:51:46;10.50;99.90
11264;DHT22;5689;48.798;9.070;2023-04-15T06:57:25;11.40;99.90
11264;DHT22;5689;48.798;9.070;2023-04-15T06:59:56;11.40;99.90
11264;DHT22;5689;48.798;9.070;2023-04-15T07:02:25;12.00;99.90
11264;DHT22;5689;48.798;9.070;2023-04-15T07:04:53;12.20;99.90
11264;DHT22;5689;48.798;9.070;2023-04-15T07:07:22;12.20;99.90
11264;DHT22;5689;48.798;9.070;2023-04-15T07:09:51;11.50;99.90
11264;DHT22;5689;48.798;9.070;2023-04-15T07:12:19;11.50;99.90
11264;DHT22;5689;48.798;9.070;2023-04-15T07:14:47;12.60;98.40
11264;DHT22;5689;48.798;9.070;2023-04-15T07:17:16;13.50;98.20
11264;DHT22;5689;48.798;9.070;2023-04-15T07:19:44;13.90;97.20
11264;DHT22;5689;48.798;9.070;2023-04-15T07:22:12;14.80;95.60
11264;DHT22;5689;48.798;9.070;2023-04-15T07:24:41;14.80;95.70
11264;DHT22;5689;48.798;9.070;2023-04-15T07:27:09;14.70;92.70
11264;DHT22;5689;48.798;9.070;2023-04-15T07:29:37;15.60;91.90
11264;DHT22;5689;48.798;9.070;2023-04-15T07:32:05;15.80;90.40
11264;DHT22;5689;48.798;9.070;2023-04-15T07:34:33;16.50;90.30
11264;DHT22;5689;48.798;9.070;2023-04-15T07:37:02;17.90;84.20
11264;DHT22;5689;48.798;9.070;2023-04-15T07:39:30;18.60;79.30
11264;DHT22;5689;48.798;9.070;2023-04-15T07:41:59;17.30;77.20
11264;DHT22;5689;48.798;9.070;2023-04-15T07:44:28;15.60;83.10
11264;DHT22;5689;48.798;9.070;2023-04-15T07:46:56;15.50;87.50
11264;DHT22;5689;48.798;9.070;2023-04-15T07:49:24;15.30;85.30
11264;DHT22;5689;48.798;9.070;2023-04-15T07:51:52;16.20;84.10
11264;DHT22;5689;48.798;9.070;2023-04-15T07:54:20;17.40;81.00
11264;DHT22;5689;48.798;9.070;2023-04-15T07:56:48;17.30;78.50
11264;DHT22;5689;48.798;9.070;2023-04-15T07:59:18;17.80;76.60
11264;DHT22;5689;48.798;9.070;2023-04-15T08:01:45;17.80;74.70
11264;DHT22;5689;48.798;9.070;2023-04-15T08:04:14;16.50;79.10
11264;DHT22;5689;48.798;9.070;2023-04-15T08:06:42;16.40;78.80
11264;DHT22;5689;48.798;9.070;2023-04-15T08:09:10;16.00;79.50
11264;DHT22;5689;48.798;9.070;2023-04-15T08:11:39;15.10;82.20
11264;DHT22;5689;48.798;9.070;2023-04-15T08:14:07;14.50;81.50
11264;DHT22;5689;48.798;9.070;2023-04-15T08:16:37;14.60;83.20
11264;DHT22;5689;48.798;9.070;2023-04-15T08:19:05;14.90;82.10
11264;DHT22;5689;48.798;9.070;2023-04-15T08:21:33;15.40;81.30
11264;DHT22;5689;48.798;9.070;2023-04-15T08:24:02;15.20;81.40
11264;DHT22;5689;48.798;9.070;2023-04-15T08:26:30;14.80;82.80
11264;DHT22;5689;48.798;9.070;2023-04-15T08:28:58;15.00;81.60
11264;DHT22;5689;48.798;9.070;2023-04-15T08:31:28;15.90;83.20
11264;DHT22;5689;48.798;9.070;2023-04-15T08:33:58;17.20;81.30
11264;DHT22;5689;48.798;9.070;2023-04-15T08:36:26;18.20;74.90
11264;DHT22;5689;48.798;9.070;2023-04-15T08:38:54;16.90;78.60
11264;DHT22;5689;48.798;9.070;2023-04-15T08:41:23;17.80;80.70
11264;DHT22;5689;48.798;9.070;2023-04-15T08:43:53;19.40;76.30
11264;DHT22;5689;48.798;9.070;2023-04-15T08:46:24;19.60;75.60
11264;DHT22;5689;48.798;9.070;2023-04-15T08:48:55;17.00;79.40
11264;DHT22;5689;48.798;9.070;2023-04-15T08:51:25;16.00;80.80
11264;DHT22;5689;48.798;9.070;2023-04-15T08:53:54;16.30;81.80
11264;DHT22;5689;48.798;9.070;2023-04-15T08:56:24;16.90;81.40
11264;DHT22;5689;48.798;9.070;2023-04-15T08:58:52;16.40;83.10
11264;DHT22;5689;48.798;9.070;2023-04-15T09:01:20;16.80;80.00
11264;DHT22;5689;48.798;9.070;2023-04-15T09:03:49;15.60;83.90
11264;DHT22;5689;48.798;9.070;2023-04-15T09:06:26;14.90;83.50
11264;DHT22;5689;48.798;9.070;2023-04-15T09:08:54;16.00;84.50
11264;DHT22;5689;48.798;9.070;2023-04-15T09:11:23;15.90;83.70
11264;DHT22;5689;48.798;9.070;2023-04-15T09:13:51;15.70;82.80
11264;DHT22;5689;48.798;9.070;2023-04-15T09:16:19;16.30;82.80
11264;DHT22;5689;48.798;9.070;2023-04-15T09:18:47;16.10;84.20
11264;DHT22;5689;48.798;9.070;2023-04-15T09:21:16;16.40;82.70
11264;DHT22;5689;48.798;9.070;2023-04-15T09:23:57;16.70;82.80
11264;DHT22;5689;48.798;9.070;2023-04-15T09:26:33;18.40;77.70
11264;DHT22;5689;48.798;9.070;2023-04-15T09:29:05;20.10;75.50
11264;DHT22;5689;48.798;9.070;2023-04-15T09:31:34;19.20;74.10
11264;DHT22;5689;48.798;9.070;2023-04-15T09:34:02;18.90;79.40
11264;DHT22;5689;48.798;9.070;2023-04-15T09:36:37;18.40;74.90
11264;DHT22;5689;48.798;9.070;2023-04-15T09:39:09;18.90;73.30
11264;DHT22;5689;48.798;9.070;2023-04-15T09:41:37;19.50;74.00
11264;DHT22;5689;48.798;9.070;2023-04-15T09:44:06;18.80;72.70
11264;DHT22;5689;48.798;9.070;2023-04-15T09:46:40;17.90;72.50
11264;DHT22;5689;48.798;9.070;2023-04-15T09:49:10;17.80;72.30
11264;DHT22;5689;48.798;9.070;2023-04-15T09:51:38;18.00;74.90
11264;DHT22;5689;48.798;9.070;2023-04-15T09:54:08;17.20;76.90
11264;DHT22;5689;48.798;9.070;2023-04-15T09:56:37;17.90;74.30
11264;DHT22;5689;48.798;9.070;2023-04-15T09:59:07;17.20;75.20
11264;DHT22;5689;48.798;9.070;2023-04-15T10:01:36;17.60;74.30
11264;DHT22;5689;48.798;9.070;2023-04-15T10:04:05;18.00;72.10
11264;DHT22;5689;48.798;9.070;2023-04-15T10:06:33;16.70;74.00
11264;DHT22;5689;48.798;9.070;2023-04-15T10:09:02;16.80;76.30
11264;DHT22;5689;48.798;9.070;2023-04-15T10:11:32;16.30;76.00
11264;DHT22;5689;48.798;9.070;2023-04-15T10:14:02;15.70;77.10
11264;DHT22;5689;48.798;9.070;2023-04-15T10:16:31;16.30;76.70
11264;DHT22;5689;48.798;9.070;2023-04-15T10:19:07;17.40;74.70
11264;DHT22;5689;48.798;9.070;2023-04-15T10:21:36;17.10;74.80
11264;DHT22;5689;48.798;9.070;2023-04-15T10:24:05;17.20;77.20
11264;DHT22;5689;48.798;9.070;2023-04-15T10:26:35;16.30;79.50
11264;DHT22;5689;48.798;9.070;2023-04-15T10:29:04;16.20;77.70
11264;DHT22;5689;48.798;9.070;2023-04-15T10:31:32;16.30;78.40
11264;DHT22;5689;48.798;9.070;2023-04-15T10:34:01;15.80;81.70
11264;DHT22;5689;48.798;9.070;2023-04-15T10:36:32;15.70;82.20
11264;DHT22;5689;48.798;9.070;2023-04-15T10:39:00;15.80;80.80
11264;DHT22;5689;48.798;9.070;2023-04-15T10:41:28;14.90;81.00
11264;DHT22;5689;48.798;9.070;2023-04-15T10:44:02;14.60;81.70
11264;DHT22;5689;48.798;9.070;2023-04-15T10:46:35;15.50;79.00
11264;DHT22;5689;48.798;9.070;2023-04-15T10:49:08;16.10;79.10
11264;DHT22;5689;48.798;9.070;2023-04-15T10:51:38;16.20;79.90
11264;DHT22;5689;48.798;9.070;2023-04-15T10:54:11;16.50;80.80
11264;DHT22;5689;48.798;9.070;2023-04-15T10:56:41;16.50;79.30
11264;DHT22;5689;48.798;9.070;2023-04-15T10:59:15;17.10;79.50
11264;DHT22;5689;48.798;9.070;2023-04-15T11:01:53;17.00;77.90
11264;DHT22;5689;48.798;9.070;2023-04-15T11:04:53;16.70;77.30
11264;DHT22;5689;48.798;9.070;2023-04-15T11:07:46;15.70;77.70
11264;DHT22;5689;48.798;9.070;2023-04-15T11:10:49;15.10;77.60
11264;DHT22;5689;48.798;9.070;2023-04-15T11:13:24;17.00;76.20
11264;DHT22;5689;48.798;9.070;2023-04-15T11:15:59;16.90;74.20
11264;DHT22;5689;48.798;9.070;2023-04-15T11:18:29;16.60;73.80
11264;DHT22;5689;48.798;9.070;2023-04-15T11:21:04;17.40;72.10
11264;DHT22;5689;48.798;9.070;2023-04-15T11:23:35;17.30;75.10
11264;DHT22;5689;48.798;9.070;2023-04-15T11:26:06;16.70;73.10
11264;DHT22;5689;48.798;9.070;2023-04-15T11:28:38;16.20;75.90
11264;DHT22;5689;48.798;9.070;2023-04-15T11:31:10;15.30;78.00
11264;DHT22;5689;48.798;9.070;2023-04-15T11:33:44;15.00;80.40
11264;DHT22;5689;48.798;9.070;2023-04-15T11:36:28;14.50;80.00
11264;DHT22;5689;48.798;9.070;2023-04-15T11:38:58;14.70;81.90
11264;DHT22;5689;48.798;9.070;2023-04-15T11:41:26;16.00;79.00
11264;DHT22;5689;48.798;9.070;2023-04-15T11:43:54;17.70;75.70
11264;DHT22;5689;48.798;9.070;2023-04-15T11:46:29;19.20;71.70
11264;DHT22;5689;48.798;9.070;2023-04-15T11:48:58;19.00;69.60
11264;DHT22;5689;48.798;9.070;2023-04-15T11:51:31;19.30;67.90
11264;DHT22;5689;48.798;9.070;2023-04-15T11:53:59;19.50;70.00
11264;DHT22;5689;48.798;9.070;2023-04-15T11:56:27;19.20;70.50
11264;DHT22;5689;48.798;9.070;2023-04-15T11:58:58;17.70;71.50
11264;DHT22;5689;48.798;9.070;2023-04-15T12:01:31;17.60;74.70
11264;DHT22;5689;48.798;9.070;2023-04-15T12:04:01;17.30;74.00
11264;DHT22;5689;48.798;9.070;2023-04-15T12:06:31;17.20;73.60
11264;DHT22;5689;48.798;9.070;2023-04-15T12:09:06;17.10;71.50
11264;DHT22;5689;48.798;9.070;2023-04-15T12:11:45;17.90;74.00
11264;DHT22;5689;48.798;9.070;2023-04-15T12:14:23;18.30;74.20
11264;DHT22;5689;48.798;9.070;2023-04-15T12:16:57;18.20;73.90
11264;DHT22;5689;48.798;9.070;2023-04-15T12:19:27;18.40;72.70
11264;DHT22;5689;48.798;9.070;2023-04-15T12:21:58;17.80;69.20
11264;DHT22;5689;48.798;9.070;2023-04-15T12:24:27;19.10;67.90
11264;DHT22;5689;48.798;9.070;2023-04-15T12:27:01;19.00;68.40
11264;DHT22;5689;48.798;9.070;2023-04-15T12:29:30;18.30;71.10
11264;DHT22;5689;48.798;9.070;2023-04-15T12:32:04;18.20;74.00
11264;DHT22;5689;48.798;9.070;2023-04-15T12:34:35;17.40;76.40
11264;DHT22;5689;48.798;9.070;2023-04-15T12:37:13;16.00;82.10
11264;DHT22;5689;48.798;9.070;2023-04-15T12:39:44;17.40;80.00
11264;DHT22;5689;48.798;9.070;2023-04-15T12:42:13;16.60;79.30
11264;DHT22;5689;48.798;9.070;2023-04-15T12:44:41;16.30;80.90
11264;DHT22;5689;48.798;9.070;2023-04-15T12:47:11;15.60;83.90
11264;DHT22;5689;48.798;9.070;2023-04-15T12:49:40;15.30;84.90
11264;DHT22;5689;48.798;9.070;2023-04-15T12:52:08;15.20;83.60
11264;DHT22;5689;48.798;9.070;2023-04-15T12:54:38;15.10;85.30
11264;DHT22;5689;48.798;9.070;2023-04-15T12:57:06;14.70;84.20
11264;DHT22;5689;48.798;9.070;2023-04-15T12:59:34;15.30;82.40
11264;DHT22;5689;48.798;9.070;2023-04-15T13:02:03;14.40;83.30
11264;DHT22;5689;48.798;9.070;2023-04-15T13:04:39;14.30;83.40
11264;DHT22;5689;48.798;9.070;2023-04-15T13:07:07;15.40;80.90
11264;DHT22;5689;48.798;9.070;2023-04-15T13:09:35;15.90;80.10
11264;DHT22;5689;48.798;9.070;2023-04-15T13:12:03;16.10;80.30
11264;DHT22;5689;48.798;9.070;2023-04-15T13:14:31;16.30;81.20
11264;DHT22;5689;48.798;9.070;2023-04-15T13:16:59;16.30;79.00
11264;DHT22;5689;48.798;9.070;2023-04-15T13:19:28;15.40;77.40
11264;DHT22;5689;48.798;9.070;2023-04-15T13:21:58;15.30;80.70
11264;DHT22;5689;48.798;9.070;2023-04-15T13:24:26;14.50;78.40
11264;DHT22;5689;48.798;9.070;2023-04-15T13:26:54;14.10;77.80
11264;DHT22;5689;48.798;9.070;2023-04-15T13:29:26;13.90;78.60
11264;DHT22;5689;48.798;9.070;2023-04-15T13:32:02;13.40;79.80
11264;DHT22;5689;48.798;9.070;2023-04-15T13:34:31;13.20;78.90
11264;DHT22;5689;48.798;9.070;2023-04-15T13:37:06;13.20;78.70
11264;DHT22;5689;48.798;9.070;2023-04-15T13:39:34;13.20;77.10
11264;DHT22;5689;48.798;9.070;2023-04-15T13:42:02;13.10;77.10
11264;DHT22;5689;48.798;9.070;2023-04-15T13:44:31;12.90;77.60
11264;DHT22;5689;48.798;9.070;2023-04-15T13:46:59;13.60;75.80
11264;DHT22;5689;48.798;9.070;2023-04-15T13:49:27;13.50;76.40
11264;DHT22;5689;48.798;9.070;2023-04-15T13:51:56;13.90;74.50
11264;DHT22;5689;48.798;9.070;2023-04-15T13:54:25;14.40;73.20
11264;DHT22;5689;48.798;9.070;2023-04-15T13:57:01;15.20;72.00
11264;DHT22;5689;48.798;9.070;2023-04-15T13:59:29;14.80;73.60
11264;DHT22;5689;48.798;9.070;2023-04-15T14:01:57;15.50;72.70
11264;DHT22;5689;48.798;9.070;2023-04-15T14:04:25;15.10;72.20
11264;DHT22;5689;48.798;9.070;2023-04-15T14:06:53;14.50;74.50
11264;DHT22;5689;48.798;9.070;2023-04-15T14:09:22;14.00;76.70
11264;DHT22;5689;48.798;9.070;2023-04-15T14:11:54;13.30;70.70
11264;DHT22;5689;48.798;9.070;2023-04-15T14:14:23;12.80;65.00
11264;DHT22;5689;48.798;9.070;2023-04-15T14:16:51;12.70;69.00
11264;DHT22;5689;48.798;9.070;2023-04-15T14:19:19;12.50;70.10
11264;DHT22;5689;48.798;9.070;2023-04-15T14:21:49;12.20;70.00
11264;DHT22;5689;48.798;9.070;2023-04-15T14:24:19;12.30;71.20
11264;DHT22;5689;48.798;9.070;2023-04-15T14:26:47;12.30;70.50
11264;DHT22;5689;48.798;9.070;2023-04-15T14:29:16;12.40;73.00
11264;DHT22;5689;48.798;9.070;2023-04-15T14:31:45;12.40;73.10
11264;DHT22;5689;48.798;9.070;2023-04-15T14:34:14;12.30;72.40
11264;DHT22;5689;48.798;9.070;2023-04-15T14:36:42;12.20;75.20
11264;DHT22;5689;48.798;9.070;2023-04-15T14:39:12;12.30;74.20
11264;DHT22;5689;48.798;9.070;2023-04-15T14:41:41;12.00;76.50
11264;DHT22;5689;48.798;9.070;2023-04-15T14:44:10;12.00;75.00
11264;DHT22;5689;48.798;9.070;2023-04-15T14:46:39;12.00;77.10
11264;DHT22;5689;48.798;9.070;2023-04-15T14:49:07;12.10;76.50
11264;DHT22;5689;48.798;9.070;2023-04-15T14:51:36;12.10;77.20
11264;DHT22;5689;48.798;9.070;2023-04-15T14:54:04;12.00;78.00
11264;DHT22;5689;48.798;9.070;2023-04-15T14:56:33;11.80;80.40
11264;DHT22;5689;48.798;9.070;2023-04-15T14:59:01;11.70;82.20
11264;DHT22;5689;48.798;9.070;2023-04-15T15:01:30;11.30;82.60
11264;DHT22;5689;48.798;9.070;2023-04-15T15:04:00;11.00;83.70
11264;DHT22;5689;48.798;9.070;2023-04-15T15:06:28;11.00;88.30
11264;DHT22;5689;48.798;9.070;2023-04-15T15:08:57;11.20;87.80
11264;DHT22;5689;48.798;9.070;2023-04-15T15:11:25;11.00;87.10
11264;DHT22;5689;48.798;9.070;2023-04-15T15:13:53;11.30;89.00
11264;DHT22;5689;48.798;9.070;2023-04-15T15:16:22;10.80;90.40
11264;DHT22;5689;48.798;9.070;2023-04-15T15:18:51;10.60;91.60
11264;DHT22;5689;48.798;9.070;2023-04-15T15:21:20;10.60;91.90
11264;DHT22;5689;48.798;9.070;2023-04-15T15:23:49;10.70;91.00
11264;DHT22;5689;48.798;9.070;2023-04-15T15:26:17;10.70;90.10
11264;DHT22;5689;48.798;9.070;2023-04-15T15:28:45;10.70;91.20
11264;DHT22;5689;48.798;9.070;2023-04-15T15:31:16;10.70;91.00
11264;DHT22;5689;48.798;9.070;2023-04-15T15:33:44;10.80;91.10
11264;DHT22;5689;48.798;9.070;2023-04-15T15:36:12;11.00;91.90
11264;DHT22;5689;48.798;9.070;2023-04-15T15:38:42;11.00;90.80
11264;DHT22;5689;48.798;9.070;2023-04-15T15:41:10;11.00;89.20
11264;DHT22;5689;48.798;9.070;2023-04-15T15:43:39;10.80;89.50
11264;DHT22;5689;48.798;9.070;2023-04-15T15:46:07;10.90;88.50
11264;DHT22;5689;48.798;9.070;2023-04-15T15:48:35;11.00;89.20
11264;DHT22;5689;48.798;9.070;2023-04-15T15:51:03;11.00;88.40
11264;DHT22;5689;48.798;9.070;2023-04-15T15:53:33;11.00;87.30
11264;DHT22;5689;48.798;9.070;2023-04-15T15:56:03;11.10;87.40
11264;DHT22;5689;48.798;9.070;2023-04-15T15:58:32;11.20;87.50
11264;DHT22;5689;48.798;9.070;2023-04-15T16:01:00;11.40;87.60
11264;DHT22;5689;48.798;9.070;2023-04-15T16:03:28;11.10;86.80
11264;DHT22;5689;48.798;9.070;2023-04-15T16:05:56;11.20;88.90
11264;DHT22;5689;48.798;9.070;2023-04-15T16:08:26;11.30;89.70
11264;DHT22;5689;48.798;9.070;2023-04-15T16:10:55;11.20;89.30